Time;durP1;ratioP1;P1;durP2;ratioP2;P2;SDS_P1;SDS_P2;PMS_P1;PMS_P2;Temp;Humidity;BMP_temperature;BMP_pressure;BME280_temperature;BME280_humidity;BME280_pressure;Samples;Min_cycle;Max_cycle;Signal;HPM_P1;HPM_P2
2022/08/13 00:01:19;;;;;;;4.93;2.93;;;;;;;19.87;54.33;100613.66;5051358;28;20560;-77
2022/08/13 00:03:46;;;;;;;3.53;2.83;;;;;;;20.01;53.89;100603.78;5044719;28;20438;-79
2022/08/13 00:06:14;;;;;;;3.20;2.90;;;;;;;19.94;53.66;100607.25;5044801;28;20489;-79
2022/08/13 00:08:40;;;;;;;6.23;2.80;;;;;;;19.81;54.23;100611.69;5047304;28;20449;-79
2022/08/13 00:12:56;;;;;;;5.43;2.90;;;;;;;19.55;55.16;100611.19;5045130;28;20557;-79
2022/08/13 00:13:55;;;;;;;5.00;2.60;;;;;;;19.66;55.21;100606.31;5044241;28;20534;-79
2022/08/13 00:16:23;;;;;;;5.63;2.70;;;;;;;19.65;54.91;100610.03;5059628;28;20591;-79
2022/08/13 00:18:49;;;;;;;7.80;2.83;;;;;;;19.71;55.05;100612.00;5063080;28;20461;-79
2022/08/13 00:21:16;;;;;;;5.10;3.03;;;;;;;19.73;54.98;100605.31;5060183;28;20488;-79
2022/08/13 00:23:43;;;;;;;4.93;3.43;;;;;;;19.61;54.77;100611.47;5050583;28;20471;-79
2022/08/13 00:26:11;;;;;;;4.20;2.43;;;;;;;19.45;54.72;100610.66;5063020;28;20890;-78
2022/08/13 00:28:37;;;;;;;4.27;2.87;;;;;;;19.38;54.99;100615.16;5059243;28;20457;-79
2022/08/13 00:31:06;;;;;;;3.00;2.50;;;;;;;19.24;55.69;100605.19;5050548;28;20552;-78
2022/08/13 00:33:33;;;;;;;3.83;2.57;;;;;;;19.08;56.40;100606.19;5063959;28;20453;-78
2022/08/13 00:35:59;;;;;;;5.03;2.33;;;;;;;19.30;55.81;100607.13;5044696;28;20500;-79
2022/08/13 00:38:28;;;;;;;2.60;2.40;;;;;;;19.22;56.33;100612.63;5044403;28;20438;-79
2022/08/13 00:40:58;;;;;;;2.87;2.47;;;;;;;19.34;55.98;100611.97;5042791;28;20465;-78
2022/08/13 00:43:25;;;;;;;3.23;2.43;;;;;;;19.41;55.24;100603.94;5055374;28;20437;-79
2022/08/13 00:45:54;;;;;;;3.77;2.27;;;;;;;19.38;55.53;100599.72;5062622;28;20631;-79
2022/08/13 00:51:08;;;;;;;3.40;2.10;;;;;;;19.33;55.35;100590.47;5056109;28;20511;-77
2022/08/13 00:53:37;;;;;;;3.60;2.47;;;;;;;19.25;55.39;100599.56;5063912;28;20536;-77
2022/08/13 00:56:05;;;;;;;3.80;2.27;;;;;;;19.01;55.94;100592.56;5061964;28;20472;-77
2022/08/13 00:58:33;;;;;;;3.73;2.90;;;;;;;19.00;56.20;100590.88;5049580;28;20454;-78
2022/08/13 01:01:00;;;;;;;3.20;2.20;;;;;;;19.13;55.70;100592.91;5044409;28;20495;-77
2022/08/13 01:03:30;;;;;;;2.53;2.33;;;;;;;19.03;56.15;100593.22;5043568;28;20477;-76
2022/08/13 01:05:59;;;;;;;5.97;2.87;;;;;;;19.10;55.71;100599.56;5045373;28;20516;-77
2022/08/13 01:08:31;;;;;;;2.50;2.07;;;;;;;18.91;56.20;100592.84;5063605;28;20433;-77
2022/08/13 01:11:00;;;;;;;3.10;2.43;;;;;;;18.91;56.74;100594.72;5061825;28;20488;-77
2022/08/13 01:13:28;;;;;;;4.90;2.33;;;;;;;19.10;56.61;100596.88;5063588;28;20436;-77
2022/08/13 01:15:56;;;;;;;3.20;2.43;;;;;;;19.11;56.24;100590.44;5060530;28;20527;-77
2022/08/13 01:18:23;;;;;;;2.33;2.00;;;;;;;18.99;56.54;100594.63;5063189;28;20488;-76
2022/08/13 01:20:58;;;;;;;2.30;2.10;;;;;;;18.84;57.23;100593.78;5061649;28;20944;-77
2022/08/13 01:23:29;;;;;;;5.10;2.30;;;;;;;18.78;57.43;100600.75;5051676;28;20448;-77
2022/08/13 01:25:59;;;;;;;2.63;1.73;;;;;;;18.76;57.71;100605.50;5047014;28;20986;-77
2022/08/13 01:28:28;;;;;;;3.23;2.03;;;;;;;18.85;57.59;100598.16;5053336;28;20532;-77
2022/08/13 01:30:57;;;;;;;3.10;2.30;;;;;;;18.83;57.89;100595.66;5060644;28;20472;-77
2022/08/13 01:33:24;;;;;;;3.63;2.43;;;;;;;18.85;57.84;100599.00;5063003;28;20512;-77
2022/08/13 01:35:53;;;;;;;5.93;2.20;;;;;;;18.90;57.42;100602.00;5061895;28;20479;-77
2022/08/13 01:38:21;;;;;;;2.40;2.20;;;;;;;18.91;57.01;100594.72;5054923;28;20436;-77
2022/08/13 01:40:49;;;;;;;3.00;2.70;;;;;;;18.67;57.37;100596.63;5061111;28;20472;-76
2022/08/13 01:43:17;;;;;;;3.70;2.17;;;;;;;18.60;57.72;100603.81;5063119;28;20436;-76
2022/08/13 01:45:44;;;;;;;3.57;2.40;;;;;;;18.48;58.49;100597.16;5054974;28;20508;-77
2022/08/13 01:50:54;;;;;;;3.67;2.13;;;;;;;18.00;59.21;100597.41;5061772;28;20511;-78
2022/08/13 01:53:21;;;;;;;2.50;2.13;;;;;;;17.86;59.77;100593.59;5061102;28;20433;-78
2022/08/13 01:55:54;;;;;;;4.73;2.77;;;;;;;18.05;59.29;100603.97;5061049;28;20883;-77
2022/08/13 01:58:22;;;;;;;3.43;2.73;;;;;;;18.12;59.02;100595.13;5056758;28;20530;-76
2022/08/13 02:00:51;;;;;;;6.10;2.80;;;;;;;18.02;59.06;100601.63;5058759;28;20572;-77
2022/08/13 02:03:20;;;;;;;4.10;2.60;;;;;;;18.30;57.97;100601.06;5061880;28;20444;-76
2022/08/13 02:05:47;;;;;;;8.57;2.43;;;;;;;18.23;57.94;100608.22;5045320;28;20575;-76
2022/08/13 02:08:15;;;;;;;2.63;1.90;;;;;;;18.25;58.32;100595.34;5049144;28;20438;-76
2022/08/13 02:10:44;;;;;;;3.83;2.27;;;;;;;18.33;57.76;100602.53;5060819;28;20469;-77
2022/08/13 02:13:14;;;;;;;3.77;2.33;;;;;;;18.43;57.63;100603.97;5046824;28;20455;-77
2022/08/13 02:15:42;;;;;;;6.23;2.20;;;;;;;18.41;57.51;100602.47;5056895;28;20495;-77
2022/08/13 02:18:14;;;;;;;6.90;2.23;;;;;;;18.59;56.89;100602.13;5062117;28;20447;-77
2022/08/13 02:20:41;;;;;;;2.03;1.93;;;;;;;18.57;56.25;100601.47;5061519;28;20496;-76
2022/08/13 02:23:08;;;;;;;5.30;2.80;;;;;;;18.28;56.98;100600.41;5062724;28;20505;-76
2022/08/13 02:25:35;;;;;;;3.27;2.60;;;;;;;17.91;58.14;100602.03;5061397;28;20480;-76
2022/08/13 02:28:02;;;;;;;2.50;2.30;;;;;;;18.09;58.37;100604.44;5043428;28;20462;-77
2022/08/13 02:30:31;;;;;;;2.23;2.03;;;;;;;18.00;58.83;100603.66;5057723;28;21075;-77
2022/08/13 02:33:00;;;;;;;3.00;2.33;;;;;;;18.16;58.34;100610.81;5042127;28;20489;-77
2022/08/13 02:35:27;;;;;;;3.33;2.33;;;;;;;17.92;59.13;100600.19;5042888;28;20466;-77
2022/08/13 02:37:54;;;;;;;3.20;2.07;;;;;;;18.08;59.17;100600.03;5046197;28;20445;-84
2022/08/13 02:43:05;;;;;;;5.57;2.17;;;;;;;18.05;59.82;100612.09;5048492;28;20437;-82
2022/08/13 02:45:33;;;;;;;2.60;2.20;;;;;;;18.01;59.82;100607.22;5059058;28;20465;-82
2022/08/13 02:48:00;;;;;;;5.23;2.40;;;;;;;18.04;60.03;100623.09;5049147;28;20771;-81
2022/08/13 02:50:27;;;;;;;3.60;2.40;;;;;;;18.06;59.88;100615.63;5049843;28;20927;-82
2022/08/13 02:52:54;;;;;;;4.57;2.30;;;;;;;18.13;59.42;100608.47;5048765;28;20445;-82
2022/08/13 02:55:22;;;;;;;2.60;2.40;;;;;;;18.25;58.93;100608.88;5052000;28;20488;-82
2022/08/13 02:57:49;;;;;;;4.40;2.40;;;;;;;18.19;59.05;100604.19;5061994;28;20479;-81
2022/08/13 03:00:17;;;;;;;3.03;2.40;;;;;;;18.23;59.16;100606.34;5062423;28;20441;-82
2022/08/13 03:02:46;;;;;;;2.83;2.20;;;;;;;18.13;59.41;100607.63;5050233;28;20442;-81
2022/08/13 03:05:15;;;;;;;3.13;2.20;;;;;;;18.29;59.29;100596.66;5046285;28;21346;-81
2022/08/13 03:07:43;;;;;;;2.63;2.43;;;;;;;18.34;59.15;100599.66;5060869;28;20438;-80
2022/08/13 03:10:11;;;;;;;3.00;2.50;;;;;;;18.16;59.20;100604.56;5044854;28;20507;-81
2022/08/13 03:12:40;;;;;;;6.33;2.50;;;;;;;17.96;59.89;100609.63;5046129;28;20544;-81
2022/08/13 03:15:09;;;;;;;2.83;2.53;;;;;;;17.82;60.69;100606.63;5055048;28;20541;-81
2022/08/13 03:17:36;;;;;;;3.50;2.10;;;;;;;17.71;60.77;100607.03;5065940;28;20461;-81
2022/08/13 03:20:06;;;;;;;3.63;2.47;;;;;;;17.74;60.57;100597.72;5064757;28;20447;-81
2022/08/13 03:22:47;;;;;;;5.60;2.53;;;;;;;17.85;60.49;100605.44;5063440;28;20497;-81
2022/08/13 03:25:13;;;;;;;3.70;2.13;;;;;;;17.85;60.03;100600.84;5060422;28;20488;-80
2022/08/13 03:27:40;;;;;;;3.63;2.50;;;;;;;17.87;60.05;100598.00;5046530;28;20490;-81
2022/08/13 03:30:09;;;;;;;5.53;2.13;;;;;;;18.00;59.51;100606.38;5063032;28;20488;-80
2022/08/13 03:32:40;;;;;;;3.57;2.00;;;;;;;18.02;59.41;100601.63;5045466;28;20441;-81
2022/08/13 03:35:09;;;;;;;5.07;2.53;;;;;;;17.86;59.28;100605.28;5053108;28;20942;-79
2022/08/13 03:37:37;;;;;;;2.83;2.20;;;;;;;17.96;59.87;100606.91;5063021;28;20459;-79
2022/08/13 03:40:05;;;;;;;3.90;2.33;;;;;;;17.88;60.10;100603.25;5063325;28;20486;-80
2022/08/13 03:42:31;;;;;;;2.70;2.50;;;;;;;17.84;60.29;100606.44;5057247;28;20465;-81
2022/08/13 03:44:58;;;;;;;4.43;2.63;;;;;;;17.78;60.51;100601.78;5057186;28;20475;-82
2022/08/13 03:47:25;;;;;;;5.63;2.53;;;;;;;17.70;60.84;100603.47;5062847;28;20466;-80
2022/08/13 03:49:51;;;;;;;4.40;2.80;;;;;;;17.65;60.87;100597.78;5063336;28;20500;-80
2022/08/13 03:52:20;;;;;;;5.10;2.70;;;;;;;17.64;61.31;100596.09;5062514;28;21068;-80
2022/08/13 03:54:46;;;;;;;3.67;2.20;;;;;;;17.49;64.41;100592.47;5055713;28;20536;-80
2022/08/13 03:57:14;;;;;;;3.13;2.40;;;;;;;17.48;63.61;100602.44;5044446;28;20477;-80
2022/08/13 03:59:41;;;;;;;3.77;2.60;;;;;;;17.46;62.03;100599.09;5046265;28;20446;-81
2022/08/13 04:02:08;;;;;;;5.70;2.50;;;;;;;17.29;62.89;100587.50;5062277;28;20553;-81
2022/08/13 04:04:34;;;;;;;4.53;3.03;;;;;;;17.35;62.12;100594.06;5063988;28;20481;-82
2022/08/13 04:07:01;;;;;;;4.53;2.70;;;;;;;17.34;62.08;100594.22;5064041;28;20477;-82
2022/08/13 04:09:29;;;;;;;4.23;2.90;;;;;;;17.22;62.86;100580.25;5062629;28;20523;-82
2022/08/13 04:11:56;;;;;;;3.23;2.73;;;;;;;17.18;62.23;100579.78;5060496;28;20507;-82
2022/08/13 04:14:22;;;;;;;3.20;2.13;;;;;;;17.23;62.33;100585.50;5062930;28;20452;-82
2022/08/13 04:16:50;;;;;;;4.20;3.37;;;;;;;17.42;60.78;100589.63;5063790;28;20477;-82
2022/08/13 04:19:17;;;;;;;3.63;2.80;;;;;;;17.47;60.56;100594.50;5049433;28;20441;-81
2022/08/13 04:21:43;;;;;;;2.70;2.40;;;;;;;17.66;60.53;100596.75;5062602;28;20477;-83
2022/08/13 04:24:11;;;;;;;4.50;3.13;;;;;;;17.85;59.47;100600.84;5060237;28;20437;-82
2022/08/13 04:26:39;;;;;;;2.90;2.40;;;;;;;17.81;59.76;100599.53;5048169;28;20552;-83
2022/08/13 04:29:08;;;;;;;4.40;3.00;;;;;;;17.72;60.28;100594.34;5061046;28;20492;-81
2022/08/13 04:31:35;;;;;;;3.93;2.37;;;;;;;17.97;59.67;100593.19;5043765;28;20596;-81
2022/08/13 04:34:01;;;;;;;3.80;2.70;;;;;;;18.19;58.67;100583.41;5044268;28;20450;-81
2022/08/13 04:36:28;;;;;;;3.60;2.63;;;;;;;18.27;58.87;100587.03;5043421;28;20473;-81
2022/08/13 04:38:55;;;;;;;4.37;2.50;;;;;;;18.58;58.52;100581.50;5046744;28;20442;-81
2022/08/13 04:41:22;;;;;;;2.50;2.30;;;;;;;18.74;57.77;100583.19;5047302;28;20532;-81
2022/08/13 04:43:50;;;;;;;3.07;2.40;;;;;;;18.71;57.70;100584.38;5054100;28;20443;-81
2022/08/13 04:46:16;;;;;;;3.33;2.80;;;;;;;18.44;59.27;100584.00;5052595;28;20473;-81
2022/08/13 04:48:43;;;;;;;5.10;2.80;;;;;;;18.37;59.19;100585.75;5054803;28;20458;-81
2022/08/13 04:51:10;;;;;;;4.70;2.40;;;;;;;18.33;58.73;100592.56;5053514;28;20489;-81
2022/08/13 04:53:36;;;;;;;2.90;2.60;;;;;;;18.02;59.13;100579.97;5055687;28;20438;-80
2022/08/13 04:56:04;;;;;;;2.60;2.40;;;;;;;17.96;60.32;100583.38;5054863;28;20507;-80
2022/08/13 04:58:35;;;;;;;3.77;2.87;;;;;;;17.84;59.78;100596.47;5045035;28;20438;-80
2022/08/13 05:01:06;;;;;;;5.43;2.77;;;;;;;17.74;60.75;100598.59;5053271;28;20472;-81
2022/08/13 05:03:33;;;;;;;4.20;2.53;;;;;;;17.69;60.64;100606.38;5060926;28;20651;-83
2022/08/13 05:06:00;;;;;;;2.33;2.13;;;;;;;18.02;60.51;100598.09;5059875;28;20511;-79
2022/08/13 05:08:27;;;;;;;5.70;3.13;;;;;;;18.89;57.39;100594.91;5062385;28;20524;-79
2022/08/13 05:10:54;;;;;;;2.47;2.00;;;;;;;20.60;52.63;100603.44;5055693;28;20477;-79
2022/08/13 05:13:23;;;;;;;5.33;2.37;;;;;;;22.14;47.82;100596.78;5043649;28;20434;-79
2022/08/13 05:15:49;;;;;;;3.20;2.87;;;;;;;23.00;44.89;100592.34;5042475;28;20485;-79
2022/08/13 05:18:18;;;;;;;2.23;2.00;;;;;;;23.58;43.33;100596.94;5053899;28;20441;-79
2022/08/13 05:20:44;;;;;;;2.90;2.60;;;;;;;24.39;41.32;100598.09;5050995;28;20516;-79
2022/08/13 05:23:13;;;;;;;3.23;2.30;;;;;;;24.97;39.99;100596.91;5062105;28;20483;-79
2022/08/13 05:25:40;;;;;;;4.07;2.50;;;;;;;25.25;39.39;100592.00;5053015;28;20911;-77
2022/08/13 05:28:08;;;;;;;3.73;2.93;;;;;;;24.20;40.58;100601.81;5060677;28;20988;-79
2022/08/13 05:30:37;;;;;;;2.40;2.17;;;;;;;24.36;41.18;100603.19;5056326;28;20484;-80
2022/08/13 05:33:13;;;;;;;3.30;2.57;;;;;;;25.37;39.75;100598.38;5061951;28;20452;-79
2022/08/13 05:35:41;;;;;;;2.73;2.27;;;;;;;25.40;39.06;100595.19;5060347;28;20488;-80
2022/08/13 05:38:08;;;;;;;4.57;2.47;;;;;;;25.89;38.08;100590.50;5057330;28;20450;-79
2022/08/13 05:40:35;;;;;;;2.47;2.13;;;;;;;25.99;37.60;100587.22;5054148;28;20509;-79
2022/08/13 05:43:02;;;;;;;3.03;2.23;;;;;;;26.28;37.04;100590.97;5059187;28;20473;-79
2022/08/13 05:45:29;;;;;;;4.90;2.80;;;;;;;25.26;37.95;100590.94;5059020;28;20796;-79
2022/08/13 05:47:56;;;;;;;3.40;2.30;;;;;;;24.56;39.54;100603.84;5057908;28;20475;-76
2022/08/13 05:50:23;;;;;;;4.83;2.37;;;;;;;26.92;36.20;100594.94;5061293;28;20484;-77
2022/08/13 05:52:51;;;;;;;3.30;2.50;;;;;;;26.35;36.93;100598.25;5055793;28;20491;-76
2022/08/13 05:55:20;;;;;;;4.57;2.43;;;;;;;27.63;34.90;100594.75;5060329;28;20448;-76
2022/08/13 05:57:47;;;;;;;3.30;2.47;;;;;;;27.75;34.34;100592.78;5061136;28;21013;-76
2022/08/13 06:05:46;;;;;;;3.87;2.43;;;;;;;24.76;39.03;100605.59;5060946;28;20467;-77
2022/08/13 06:08:15;;;;;;;4.50;2.27;;;;;;;26.16;37.46;100589.28;5059785;28;20484;-90
2022/08/13 06:10:44;;;;;;;4.77;2.60;;;;;;;26.47;35.53;100610.03;5051741;28;20489;-91
2022/08/13 06:13:13;;;;;;;4.63;2.70;;;;;;;26.84;35.16;100604.38;5066915;28;20475;-90
2022/08/13 06:15:40;;;;;;;2.50;2.30;;;;;;;26.14;35.96;100605.94;5069600;28;20495;-93
2022/08/13 06:18:07;;;;;;;2.47;2.27;;;;;;;27.27;34.86;100602.25;5070150;28;20449;-95
2022/08/13 06:20:34;;;;;;;3.30;3.00;;;;;;;28.15;33.50;100600.13;5065027;28;20461;-94
2022/08/13 06:23:02;;;;;;;2.10;1.90;;;;;;;28.74;31.96;100606.03;5063045;28;20448;-72
2022/08/13 06:25:31;;;;;;;3.00;2.20;;;;;;;28.67;32.09;100612.81;5059027;28;20461;-73
2022/08/13 06:28:00;;;;;;;5.10;2.37;;;;;;;26.84;35.16;100598.88;5060011;28;20550;-72
2022/08/13 06:30:30;;;;;;;2.40;2.03;;;;;;;25.98;37.08;100601.16;5059420;28;20485;-72
2022/08/13 06:33:01;;;;;;;2.93;2.37;;;;;;;26.91;34.68;100604.22;5061269;28;20484;-72
2022/08/13 06:35:28;;;;;;;3.23;2.50;;;;;;;27.22;35.14;100611.19;5057195;28;20469;-72
2022/08/13 06:37:55;;;;;;;3.07;2.10;;;;;;;27.31;34.43;100607.06;5060869;28;20449;-73
2022/08/13 06:40:23;;;;;;;5.10;1.83;;;;;;;29.19;31.26;100608.88;5050232;28;20462;-71
2022/08/13 06:42:52;;;;;;;3.33;1.73;;;;;;;30.32;29.72;100597.09;5061324;28;20526;-71
2022/08/13 06:45:20;;;;;;;2.37;1.73;;;;;;;30.75;28.62;100611.78;5056512;28;20458;-72
2022/08/13 06:47:47;;;;;;;2.33;1.70;;;;;;;31.20;27.59;100601.28;5058447;28;20516;-73
2022/08/13 06:50:14;;;;;;;3.63;1.80;;;;;;;31.58;26.92;100607.53;5045282;28;20451;-76
2022/08/13 06:52:41;;;;;;;2.37;1.90;;;;;;;32.18;25.84;100604.31;5055014;28;20484;-75
2022/08/13 06:55:08;;;;;;;2.63;1.67;;;;;;;32.28;25.59;100599.59;5045197;28;20458;-75
2022/08/13 06:57:37;;;;;;;3.70;2.07;;;;;;;30.86;28.28;100604.38;5052108;28;20920;-75
2022/08/13 07:00:10;;;;;;;5.07;2.00;;;;;;;29.44;30.10;100616.59;5059766;28;20955;-74
2022/08/13 07:02:42;;;;;;;3.57;1.60;;;;;;;30.17;29.54;100616.28;5052069;28;20491;-75
2022/08/13 07:05:09;;;;;;;2.13;1.70;;;;;;;32.56;26.63;100622.25;5054135;28;20460;-75
2022/08/13 07:07:44;;;;;;;2.70;1.97;;;;;;;32.34;26.96;100614.25;5054342;28;20529;-75
2022/08/13 07:10:11;;;;;;;3.27;1.93;;;;;;;32.52;25.99;100615.63;5048222;28;20464;-75
2022/08/13 07:12:41;;;;;;;6.63;1.83;;;;;;;33.13;25.40;100600.00;5060087;28;20482;-75
2022/08/13 07:15:14;;;;;;;11.83;1.97;;;;;;;32.83;25.79;100607.31;5060782;28;20473;-74
2022/08/13 07:17:41;;;;;;;2.63;1.87;;;;;;;30.80;28.65;100605.47;5060617;28;20450;-74
2022/08/13 07:20:10;;;;;;;1.93;1.67;;;;;;;31.40;28.40;100599.69;5059427;28;20470;-74
2022/08/13 07:22:36;;;;;;;2.53;1.57;;;;;;;32.95;25.99;100610.59;5061141;28;20446;-74
2022/08/13 07:25:04;;;;;;;4.90;2.40;;;;;;;32.13;26.53;100598.78;5058286;28;20493;-75
2022/08/13 07:27:31;;;;;;;3.00;1.70;;;;;;;32.38;26.53;100603.47;5058898;28;20612;-74
2022/08/13 07:29:59;;;;;;;3.30;1.70;;;;;;;31.41;27.83;100595.84;5056781;28;20563;-75
2022/08/13 07:32:28;;;;;;;12.93;2.00;;;;;;;31.91;26.54;100597.06;5060251;28;20502;-75
2022/08/13 07:34:58;;;;;;;2.40;1.33;;;;;;;34.40;22.04;100594.78;5052919;28;20471;-75
2022/08/13 07:37:25;;;;;;;2.00;1.43;;;;;;;33.08;23.87;100595.31;5059205;28;20475;-75
2022/08/13 07:39:52;;;;;;;2.40;1.73;;;;;;;33.07;24.22;100588.09;5060201;28;20460;-73
2022/08/13 07:42:19;;;;;;;2.27;1.67;;;;;;;33.71;23.55;100591.16;5045923;28;20508;-73
2022/08/13 07:44:50;;;;;;;6.40;1.70;;;;;;;32.64;25.49;100599.59;5061735;28;20487;-74
2022/08/13 07:47:17;;;;;;;3.40;1.80;;;;;;;32.50;24.98;100594.88;5063150;28;20518;-74
2022/08/13 07:49:46;;;;;;;2.30;1.80;;;;;;;34.54;22.62;100594.09;5064552;28;20457;-75
2022/08/13 07:52:13;;;;;;;3.00;1.60;;;;;;;35.27;22.46;100590.25;5062838;28;20489;-74
2022/08/13 07:54:40;;;;;;;2.80;1.60;;;;;;;34.24;23.53;100599.66;5051484;28;20450;-75
2022/08/13 07:57:08;;;;;;;2.20;1.67;;;;;;;33.96;23.59;100604.03;5063417;28;20485;-74
2022/08/13 07:59:36;;;;;;;2.73;1.93;;;;;;;34.58;23.15;100597.94;5064409;28;20446;-73
2022/08/13 08:02:05;;;;;;;3.07;1.93;;;;;;;35.16;22.19;100595.09;5063033;28;20474;-72
2022/08/13 08:04:34;;;;;;;2.40;1.77;;;;;;;35.68;21.09;100597.19;5061745;28;20469;-73
2022/08/13 08:07:03;;;;;;;4.17;1.40;;;;;;;34.39;23.00;100597.84;5062868;28;20510;-73
2022/08/13 08:09:30;;;;;;;2.87;1.40;;;;;;;35.74;21.68;100602.41;5061793;28;20460;-73
2022/08/13 08:14:42;;;;;;;1.70;1.60;;;;;;;34.99;23.00;100609.47;5050260;28;20454;-73
2022/08/13 08:17:10;;;;;;;4.30;1.90;;;;;;;36.28;22.25;100602.94;5052822;28;20510;-73
2022/08/13 08:19:38;;;;;;;5.67;1.60;;;;;;;34.54;24.78;100610.75;5063935;28;20497;-73
2022/08/13 08:22:07;;;;;;;1.87;1.60;;;;;;;34.61;24.29;100609.28;5063372;28;20510;-73
2022/08/13 08:24:34;;;;;;;5.87;2.20;;;;;;;34.42;24.59;100602.81;5063350;28;20431;-73
2022/08/13 08:27:02;;;;;;;4.50;1.63;;;;;;;35.61;23.18;100603.97;5062258;28;20506;-73
2022/08/13 08:29:31;;;;;;;4.67;2.03;;;;;;;36.17;22.52;100607.00;5059387;28;20541;-72
2022/08/13 08:31:58;;;;;;;5.27;1.50;;;;;;;35.92;23.14;100602.69;5042919;28;20523;-72
2022/08/13 08:34:25;;;;;;;6.07;2.13;;;;;;;35.56;24.19;100606.81;5044249;28;20450;-72
2022/08/13 08:36:53;;;;;;;2.80;1.93;;;;;;;36.69;21.72;100598.63;5043318;28;20471;-72
2022/08/13 08:44:52;;;;;;;2.60;1.67;;;;;;;37.15;21.17;100602.44;5063397;28;20535;-73
2022/08/13 08:47:19;;;;;;;5.00;1.87;;;;;;;36.83;21.07;100605.03;5061881;28;20800;-73
2022/08/13 08:49:46;;;;;;;4.00;1.70;;;;;;;36.35;21.58;100596.97;5063523;28;20895;-73
2022/08/13 08:52:13;;;;;;;5.53;1.67;;;;;;;36.54;21.64;100602.47;5062965;28;20478;-72
2022/08/13 08:54:41;;;;;;;2.60;1.63;;;;;;;36.46;21.33;100589.25;5062971;28;20428;-73
2022/08/13 08:57:08;;;;;;;2.47;1.87;;;;;;;36.13;22.09;100592.06;5061543;28;20539;-72
2022/08/13 08:59:39;;;;;;;3.73;2.00;;;;;;;36.04;22.35;100596.66;5063310;28;20837;-72
2022/08/13 09:02:17;;;;;;;3.47;1.70;;;;;;;38.41;19.72;100591.41;5060177;28;20517;-73
2022/08/13 09:04:55;;;;;;;2.43;1.50;;;;;;;36.33;21.51;100596.47;5063258;28;20465;-73
2022/08/13 09:07:24;;;;;;;2.20;1.90;;;;;;;36.13;22.02;100578.97;5062507;28;20484;-73
2022/08/13 09:09:56;;;;;;;2.53;2.10;;;;;;;37.70;20.33;100582.03;5060973;28;20524;-74
2022/08/13 09:12:25;;;;;;;1.80;1.70;;;;;;;37.75;20.87;100579.13;5062738;28;20482;-74
2022/08/13 09:14:53;;;;;;;2.23;1.97;;;;;;;37.79;21.12;100578.16;5062877;28;20488;-72
2022/08/13 09:17:20;;;;;;;5.60;2.20;;;;;;;37.09;20.34;100580.25;5062125;28;20533;-72
2022/08/13 09:19:47;;;;;;;2.73;2.03;;;;;;;36.20;21.77;100567.44;5063225;28;20679;-73
2022/08/13 09:22:17;;;;;;;2.10;2.00;;;;;;;37.01;21.11;100574.56;5062708;28;20483;-73
2022/08/13 09:24:46;;;;;;;3.90;2.17;;;;;;;37.12;20.90;100574.06;5062356;28;20434;-73
2022/08/13 09:27:17;;;;;;;2.63;2.43;;;;;;;36.17;21.91;100568.88;5061753;28;20492;-73
2022/08/13 09:29:44;;;;;;;3.37;2.60;;;;;;;36.00;21.99;100571.38;5061857;28;20506;-73
2022/08/13 09:32:11;;;;;;;3.47;2.57;;;;;;;35.59;22.52;100560.88;5062257;28;20479;-73
2022/08/13 09:34:39;;;;;;;3.30;2.47;;;;;;;36.15;21.78;100559.19;5063055;28;20452;-73
2022/08/13 09:37:08;;;;;;;3.70;2.10;;;;;;;36.20;22.43;100561.88;5061696;28;20499;-73
2022/08/13 09:39:37;;;;;;;6.70;2.90;;;;;;;36.14;21.70;100554.72;5061851;28;20909;-73
2022/08/13 09:42:09;;;;;;;3.37;2.40;;;;;;;36.37;21.83;100561.31;5061814;28;20550;-73
2022/08/13 09:44:42;;;;;;;2.83;2.30;;;;;;;37.38;20.30;100548.44;5062035;28;20457;-73
2022/08/13 09:47:09;;;;;;;2.60;2.40;;;;;;;36.67;20.96;100553.50;5061566;28;20483;-72
2022/08/13 09:49:36;;;;;;;5.10;2.77;;;;;;;34.98;23.35;100554.19;5062424;28;20469;-72
2022/08/13 09:52:03;;;;;;;7.83;2.90;;;;;;;35.64;23.06;100544.97;5061065;28;20508;-72
2022/08/13 09:54:32;;;;;;;2.80;2.20;;;;;;;35.34;23.01;100543.44;5062662;28;20510;-73
2022/08/13 09:56:59;;;;;;;3.53;2.47;;;;;;;36.36;21.80;100540.19;5061381;28;20473;-72
2022/08/13 09:59:26;;;;;;;3.00;2.70;;;;;;;35.58;22.99;100545.34;5061185;28;20447;-73
2022/08/13 10:01:56;;;;;;;5.50;3.00;;;;;;;35.75;22.22;100531.72;5059441;28;20499;-73
2022/08/13 10:04:23;;;;;;;9.30;3.30;;;;;;;34.74;23.77;100541.16;5062134;28;20472;-72
2022/08/13 10:06:49;;;;;;;3.43;2.70;;;;;;;35.17;24.13;100532.84;5060788;28;20850;-73
2022/08/13 10:09:16;;;;;;;3.90;2.53;;;;;;;36.14;21.85;100532.47;5060977;28;20489;-73
2022/08/13 10:11:43;;;;;;;3.93;3.00;;;;;;;34.97;22.76;100525.59;5061472;28;20502;-73
2022/08/13 10:14:09;;;;;;;5.20;3.00;;;;;;;36.05;21.73;100526.78;5061757;28;20419;-74
2022/08/13 10:16:36;;;;;;;3.70;2.80;;;;;;;35.89;22.57;100531.78;5060999;28;20544;-73
2022/08/13 10:19:06;;;;;;;4.73;2.93;;;;;;;35.99;22.28;100530.78;5061880;28;20467;-73
2022/08/13 10:21:33;;;;;;;5.00;3.43;;;;;;;35.94;22.30;100528.91;5060895;28;21015;-73
2022/08/13 10:24:00;;;;;;;3.10;2.83;;;;;;;35.21;22.18;100525.56;5062098;28;20517;-74
2022/08/13 10:26:26;;;;;;;3.50;3.10;;;;;;;35.33;21.97;100519.56;5060711;28;20505;-73
2022/08/13 10:28:53;;;;;;;3.67;2.93;;;;;;;36.27;21.02;100520.56;5061327;28;20542;-73
2022/08/13 10:31:21;;;;;;;4.10;3.07;;;;;;;36.77;20.18;100510.72;5061341;28;20490;-73
2022/08/13 10:33:50;;;;;;;3.33;2.50;;;;;;;35.73;22.13;100508.97;5062230;28;20450;-73
2022/08/13 10:36:18;;;;;;;3.50;2.63;;;;;;;34.91;23.38;100500.94;5060729;28;20538;-73
2022/08/13 10:38:45;;;;;;;3.63;3.07;;;;;;;35.64;22.53;100500.47;5061313;28;20750;-73
2022/08/13 10:41:12;;;;;;;4.20;3.67;;;;;;;33.60;25.29;100504.41;5060815;28;20489;-73
2022/08/13 10:43:39;;;;;;;3.80;2.97;;;;;;;33.53;24.66;100507.50;5061952;28;20466;-73
2022/08/13 10:46:09;;;;;;;3.67;3.37;;;;;;;32.74;26.32;100493.53;5060426;28;20486;-73
2022/08/13 10:48:35;;;;;;;3.30;3.00;;;;;;;32.82;26.50;100497.63;5061570;28;20880;-72
2022/08/13 10:51:02;;;;;;;4.60;4.10;;;;;;;33.12;25.77;100493.06;5060863;28;20477;-72
2022/08/13 10:56:17;;;;;;;5.50;3.10;;;;;;;33.90;24.85;100486.72;5060433;28;20487;-73
2022/08/13 10:58:44;;;;;;;3.70;3.40;;;;;;;33.38;24.32;100474.34;5060804;28;20433;-73
2022/08/13 11:01:11;;;;;;;4.00;3.23;;;;;;;33.74;24.68;100485.22;5061083;28;20482;-73
2022/08/13 11:03:38;;;;;;;9.47;3.50;;;;;;;33.46;25.12;100484.03;5043484;28;20513;-72
2022/08/13 11:06:07;;;;;;;3.67;3.23;;;;;;;34.21;24.40;100469.81;5039961;28;20481;-73
2022/08/13 11:08:37;;;;;;;5.00;3.50;;;;;;;33.61;24.54;100477.50;5058380;28;20632;-73
2022/08/13 11:11:04;;;;;;;7.10;3.57;;;;;;;33.83;24.09;100450.19;5060438;28;20557;-73
2022/08/13 11:13:32;;;;;;;3.17;2.87;;;;;;;34.51;23.46;100474.19;5060897;28;20434;-73
2022/08/13 11:15:59;;;;;;;3.83;3.00;;;;;;;35.21;23.23;100467.22;5060722;28;20621;-73
2022/08/13 11:18:27;;;;;;;6.70;3.50;;;;;;;35.80;21.02;100473.22;5061078;28;20443;-73
2022/08/13 11:21:07;;;;;;;4.90;3.27;;;;;;;35.78;20.87;100463.53;5062439;28;20474;-73
2022/08/13 11:23:36;;;;;;;3.77;3.47;;;;;;;34.99;21.82;100472.50;5065299;28;20463;-73
2022/08/13 11:26:03;;;;;;;3.37;3.07;;;;;;;35.41;22.02;100468.00;5064132;28;20471;-73
2022/08/13 11:28:30;;;;;;;5.20;3.50;;;;;;;34.87;21.33;100461.81;5063880;28;20493;-73
2022/08/13 11:30:57;;;;;;;3.70;3.40;;;;;;;35.78;20.50;100453.25;5064411;28;20516;-73
2022/08/13 11:33:25;;;;;;;3.53;3.07;;;;;;;35.58;20.76;100448.81;5064735;28;20479;-73
2022/08/13 11:35:52;;;;;;;3.93;3.60;;;;;;;35.08;21.07;100440.13;5063776;28;20823;-73
2022/08/13 11:38:21;;;;;;;3.47;3.27;;;;;;;34.72;21.74;100448.13;5065106;28;20414;-73
2022/08/13 11:40:51;;;;;;;4.03;3.63;;;;;;;35.25;21.02;100451.56;5064313;28;20610;-73
2022/08/13 11:43:18;;;;;;;3.47;3.17;;;;;;;34.63;22.20;100442.38;5064096;28;20883;-73
2022/08/13 11:45:45;;;;;;;3.77;3.47;;;;;;;34.73;22.08;100447.84;5064213;28;20493;-72
2022/08/13 11:48:11;;;;;;;4.43;3.37;;;;;;;35.08;22.40;100442.91;5064460;28;20490;-73
2022/08/13 11:50:38;;;;;;;3.60;3.30;;;;;;;34.61;21.99;100437.13;5063400;28;20603;-72
2022/08/13 11:53:05;;;;;;;5.20;3.83;;;;;;;33.77;23.52;100432.75;5064539;28;20468;-72